San Juan, PR

12:09 PM AST on July 30, 2015 (GMT -0400)
Condado, Calle Earle, At The Ocean | Change Station
CLOSE
Current Station
Personal Weather Station
Location: San Juan, SAN JUAN
Elevation: 10 ft
Nearby Weather Stations

Elev 10 ft 18.46 °N, 66.07 °W | Updated 9 seconds ago

Scattered Clouds
Scattered Clouds
85.1 °F
Feels Like 96 °F
N
3.0
Wind Variable Wind from North
Gusts 15.0 mph

Today
High -- | Low -- °F
--% Chance of Precip.
Yesterday
High -- | Low -- °F
Precip. -- in
6:01 AM 7:00 PM
Waxing Gibbous, 99% visible
Pressure 30.06 in
Visibility 10.0 miles
Clouds Few 2800 ft
Scattered Clouds 3300 ft
Heat Index 96 °F
Dew Point 77 °F
Humidity 77%
Rainfall 0.00 in
Snow Depth Not available.
UV 10 out of 12
Pollen Not available.
Air Quality Not available.
Flu Activity Not available.
METAR TJSJ 301556Z 07016G21KT 10SM FEW028 SCT033 32/25 A3006 RMK AO2 SLP179 T03170250

More Conditions Fewer Conditions

Pressure 30.06 in
Visibility 10.0 miles
Clouds Few 2800 ft
Scattered Clouds 3300 ft
Heat Index 96 °F
Dew Point 77 °F
Humidity 77%
Rainfall 0.00 in
Snow Depth Not available.
UV 10 out of 12
Pollen Not available.
Air Quality Not available.
Flu Activity Not available.
METAR TJSJ 301556Z 07016G21KT 10SM FEW028 SCT033 32/25 A3006 RMK AO2 SLP179 T03170250

More Conditions Fewer Conditions

10-Day Weather Forecast

Almanac

Astronomy

Jul. 30, 2015 Rise Set
Actual Time 6:01 AM AST 7:00 PM AST
Civil Twilight 5:38 AM AST 7:23 PM AST
Nautical Twilight 5:10 AM AST 7:50 PM AST
Astronomical Twilight 4:42 AM AST 8:18 PM AST
Moon 6:19 PM AST 5:03 AM AST
Length of Visible Light 13h 45m
Length of Day
12h 58m
Tomorrow will be 0m 45s shorter.
Waxing Gibbous, 99% of the Moon is Illuminated
Today
Waxing Gibbous
Jul 31
Full
Aug 6
Last Quarter
Aug 14
New
Aug 22
First Quarter

Community

WunderPhotos

Upload Photos

1,842,412 photos uploaded!

Nearby

Snow Depth

Station Depth Elevation
No new snow has been reported.

Earthquake Activity

City Distance Mag. Time & Date
No recent earthquake activity has been reported nearby.
Minimum magnitude displayed is 2.5.

Coastal Water Temperatures

Place Temperature
San Juan, PR 84.0 °F
Mayaguez, PR 86.0 °F
Esperanza, PR 84.0 °F

Nearby Weather Stations